Egor'evsk, Russia
Current Conditions -  °F | °C
As of 4:30 PM on Thursday 30 Oct 2014 (Local Time) from UUDD Reporting Station
Scattered Clouds Scattered Clouds  
Wind Chill: 34°   Ceiling: Unl
Heat Index: 41°   Visibility: 4mi
Dew Point: 25°   Wind: 11mph
Humidity: 53%   Direction: 200°SSW
Pressure: 30.18"   Gusts: NA
Location:  55.38°N, 39.04°E
Report Text: UUDD 301330Z 20005MPS 7000 SCT100 05/M04 Q1022 6401009514010095 NOSIG
Loading
Personal Weather Stations






























Interactive Weather Map
Tropical Storm Tracking
New forecast layout! Learn more

10-Day Weather Forecast

Advertisements
Track Severe Weather on mobile